This is the latest recevied weather packets stored in our database for station/object NC4M. If no packets are shown the sender has not sent any weather packets the latest 1 day(s).
| Time | Temp. | Humidity | Pressure | Rain* | Wind** | Luminosity | Snow |
|---|---|---|---|---|---|---|---|
| 1778004810 | 10.56° C | 79% | 1010.4 hPa | 0 mm | 0.45 m/s, 118° | 69 W/m² | - |
| 1778004507 | 10.56° C | 80% | 1010.4 hPa | 0 mm | 0.45 m/s, 58° | 81 W/m² | - |
| 1778004203 | 10.56° C | 82% | 1009.9 hPa | 0 mm | 0 m/s | 100 W/m² | - |
| 1778003900 | 10.56° C | 81% | 1009.7 hPa | 0 mm | 0.89 m/s, 263° | 130 W/m² | - |
| 1778003597 | 11.11° C | 81% | 1009.7 hPa | 0 mm | 0.45 m/s, 178° | 130 W/m² | - |
| 1778003293 | 11.11° C | 81% | 1009.8 hPa | 0 mm | 0.89 m/s, 282° | 149 W/m² | - |
| 1778002991 | 11.11° C | 80% | 1009.8 hPa | 0 mm | 0.45 m/s, 45° | 138 W/m² | - |
| 1778002686 | 11.11° C | 81% | 1009.9 hPa | 1.27 mm | 0.89 m/s, 73° | 155 W/m² | - |
| 1778002383 | 11.11° C | 76% | 1009.8 hPa | 0 mm | 0.45 m/s, 44° | 222 W/m² | - |
| 1778002091 | 11.11° C | 76% | 1010.2 hPa | 0 mm | 0.45 m/s, 267° | 175 W/m² | - |
| 1778001777 | 11.11° C | 76% | 1010.2 hPa | 0 mm | 0 m/s | 100 W/m² | - |
| 1778001472 | 11.11° C | 76% | 1010.6 hPa | 0 mm | 0.89 m/s, 232° | 59 W/m² | - |
| 1778001169 | 11.11° C | 76% | 1010.3 hPa | 0 mm | 0 m/s | 79 W/m² | - |
| 1778000866 | 11.11° C | 79% | 1011.1 hPa | 0 mm | 0.45 m/s, 321° | 60 W/m² | - |
| 1778000563 | 11.11° C | 79% | 1010.6 hPa | 0 mm | 0 m/s | 66 W/m² | - |
| 1778000258 | 11.11° C | 79% | 1011.3 hPa | 0 mm | 0.45 m/s, 36° | 47 W/m² | - |
| 1777999954 | 11.67° C | 79% | 1011.1 hPa | 0 mm | 0.45 m/s, 286° | 42 W/m² | - |
| 1777999650 | 11.67° C | 79% | 1010.7 hPa | 0 mm | 0 m/s | 48 W/m² | - |
| 1777999347 | 11.67° C | 79% | 1011.1 hPa | 0 mm | 0.45 m/s, 304° | 43 W/m² | - |
| 1777999045 | 11.67° C | 79% | 1011.1 hPa | 0 mm | 0.45 m/s, 277° | 45 W/m² | - |
| 1777998744 | 11.67° C | 80% | 1010.9 hPa | 0 mm | 0 m/s | 52 W/m² | - |
| 1777998440 | 11.67° C | 80% | 1010.7 hPa | 0 mm | 0.45 m/s, 295° | 51 W/m² | - |
| 1777998137 | 11.67° C | 79% | 1011.1 hPa | 0 mm | 0.45 m/s, 278° | 46 W/m² | - |
| 1777997834 | 11.67° C | 78% | 1010.3 hPa | 0 mm | 0 m/s | 79 W/m² | - |
| 1777997532 | 12.22° C | 77% | 1010 hPa | 0 mm | 0.45 m/s, 37° | 132 W/m² | - |
* Rain latest hour (hover to see other rain measurements)
** Current wind speed in m/s (hover to see current wind gust speed)